Time;durP1;ratioP1;P1;durP2;ratioP2;P2;SDS_P1;SDS_P2;PMS_P1;PMS_P2;Temp;Humidity;BMP_temperature;BMP_pressure;BME280_temperature;BME280_humidity;BME280_pressure;Samples;Min_cycle;Max_cycle;Signal;HPM_P1;HPM_P2
2022/02/10 00:25:45;;;;;;;88.38;28.58;;;8.10;99.90;;;;;;5005219;28;20048;-68
2022/02/10 00:35:52;;;;;;;102.78;29.35;;;8.10;99.90;;;;;;4991102;28;20053;-68
2022/02/10 00:38:21;;;;;;;108.57;28.63;;;8.10;99.90;;;;;;5022174;28;20128;-68
2022/02/10 00:40:47;;;;;;;110.18;28.65;;;8.10;99.90;;;;;;5005711;28;20049;-68
2022/02/10 00:43:13;;;;;;;39.28;13.85;;;8.10;99.90;;;;;;5002301;28;20054;-68
2022/02/10 00:45:39;;;;;;;13.48;6.57;;;8.20;99.90;;;;;;5006227;28;20049;-68
2022/02/10 00:48:10;;;;;;;18.70;8.32;;;8.30;99.90;;;;;;5006632;28;20077;-68
2022/02/10 00:50:41;;;;;;;19.90;8.50;;;8.00;99.90;;;;;;5001539;28;20054;-68
2022/02/10 00:53:14;;;;;;;17.50;7.75;;;8.10;99.90;;;;;;5022052;28;20054;-68
2022/02/10 00:55:43;;;;;;;17.27;8.15;;;8.30;99.90;;;;;;5003837;28;20052;-68
2022/02/10 00:58:13;;;;;;;17.02;7.60;;;8.00;99.90;;;;;;5003971;28;20042;-68
2022/02/10 01:30:14;;;;;;;18.83;6.72;;;7.60;99.90;;;;;;5005478;28;20054;-68
2022/02/10 01:32:46;;;;;;;18.75;7.28;;;7.80;99.90;;;;;;5023205;28;20079;-68
2022/02/10 01:35:18;;;;;;;16.63;6.85;;;7.70;99.90;;;;;;5005321;28;20053;-68
2022/02/10 01:37:44;;;;;;;19.02;7.85;;;7.80;99.90;;;;;;5005272;28;20080;-68
2022/02/10 01:40:17;;;;;;;21.13;8.20;;;7.80;99.90;;;;;;5023684;28;20042;-68
2022/02/10 02:04:42;;;;;;;16.88;7.75;;;7.90;99.90;;;;;;5025917;28;20053;-68
2022/02/10 02:07:09;;;;;;;34.42;8.45;;;7.80;99.90;;;;;;5008749;28;20046;-68
2022/02/10 02:09:35;;;;;;;32.47;8.63;;;7.90;99.90;;;;;;5009496;28;20052;-68
2022/02/10 02:12:06;;;;;;;23.50;8.48;;;7.70;99.90;;;;;;4993621;28;20060;-68
2022/02/10 02:14:32;;;;;;;20.08;8.02;;;7.70;99.90;;;;;;5009515;28;20061;-68
2022/02/10 02:17:04;;;;;;;16.98;7.57;;;7.70;99.90;;;;;;5025350;28;20112;-68
2022/02/10 02:19:34;;;;;;;27.60;11.07;;;7.90;99.90;;;;;;5008528;28;20050;-68
2022/02/10 02:22:10;;;;;;;27.48;11.50;;;7.80;99.90;;;;;;5008725;28;20532;-68
2022/02/10 02:24:36;;;;;;;37.13;14.57;;;7.90;99.90;;;;;;5021586;28;20402;-68
2022/02/10 02:27:05;;;;;;;38.70;14.63;;;8.00;99.90;;;;;;5025833;28;20605;-68
2022/02/10 02:29:43;;;;;;;38.80;16.27;;;8.00;99.90;;;;;;5008442;28;20042;-68
2022/02/10 02:32:17;;;;;;;47.13;18.70;;;8.10;99.90;;;;;;5008982;28;20632;-68
2022/02/10 02:40:08;;;;;;;46.30;17.48;;;8.10;99.90;;;;;;5007912;28;20057;-68
2022/02/10 03:05:16;;;;;;;13.52;6.50;;;8.20;99.90;;;;;;5008246;28;20057;-68
2022/02/10 03:07:31;;;;;;;9.77;5.03;;;8.10;99.90;;;;;;4999236;28;20046;-68
2022/02/10 03:12:37;;;;;;;9.93;5.43;;;8.00;99.90;;;;;;5003842;28;20109;-68
2022/02/10 03:15:09;;;;;;;10.80;5.20;;;8.20;99.90;;;;;;5007680;28;20050;-68
2022/02/10 03:59:34;;;;;;;9.30;4.47;;;7.80;99.90;;;;;;5007769;28;20068;-68
2022/02/10 04:04:10;;;;;;;6.70;2.33;;;7.40;99.90;;;;;;5006975;28;20045;-68
2022/02/10 04:12:34;;;;;;;6.15;1.70;;;7.50;99.90;;;;;;5006308;28;20088;-68
2022/02/10 04:15:21;;;;;;;5.13;2.20;;;7.50;99.90;;;;;;5006422;28;20227;-68
2022/02/10 04:59:54;;;;;;;9.20;4.32;;;7.00;99.90;;;;;;5006662;28;20045;-68
2022/02/10 05:03:05;;;;;;;8.60;3.75;;;6.70;99.90;;;;;;5006447;28;20054;-68
2022/02/10 05:37:52;;;;;;;15.80;6.72;;;6.80;99.90;;;;;;4907248;29;20052;-67
2022/02/10 05:40:44;;;;;;;10.80;6.30;;;6.70;99.90;;;;;;4910300;29;20059;-69
2022/02/10 05:46:06;;;;;;;21.05;7.55;;;6.70;99.90;;;;;;4909072;29;20588;-68
2022/02/10 05:48:58;;;;;;;11.20;6.35;;;6.80;99.90;;;;;;4908813;29;20230;-67
2022/02/10 05:52:05;;;;;;;13.98;6.85;;;6.60;99.90;;;;;;4887068;29;20135;-68
2022/02/10 06:54:21;;;;;;;15.13;7.95;;;6.60;99.90;;;;;;5002198;28;20108;-68
2022/02/10 06:57:20;;;;;;;14.30;7.65;;;6.60;99.90;;;;;;4999749;28;20113;-68
2022/02/10 07:05:31;;;;;;;19.13;9.10;;;6.60;99.90;;;;;;4995489;28;20050;-69
2022/02/10 07:08:10;;;;;;;16.65;9.38;;;6.60;99.90;;;;;;5008294;28;20061;-70
2022/02/10 07:14:08;;;;;;;21.67;9.63;;;6.40;99.90;;;;;;5008689;28;19929;-69
2022/02/10 07:16:37;;;;;;;17.42;9.75;;;6.60;99.90;;;;;;5002454;28;20054;-70
2022/02/10 09:57:40;;;;;;;14.13;5.90;;;7.00;99.90;;;;;;4958172;29;20054;-70
2022/02/10 10:03:29;;;;;;;12.57;6.65;;;7.20;99.90;;;;;;4852352;29;20056;-69
2022/02/10 10:08:54;;;;;;;;;;;7.30;99.90;;;;;;4853920;29;20141;-69
2022/02/10 10:14:37;;;;;;;14.95;5.75;;;7.30;99.90;;;;;;4868844;29;20087;-70
2022/02/10 10:51:27;;;;;;;11.18;3.40;;;7.80;99.90;;;;;;4984738;28;20577;-70
2022/02/10 10:56:32;;;;;;;7.55;3.00;;;7.90;99.90;;;;;;4988651;28;20122;-70
2022/02/10 11:41:08;;;;;;;9.80;2.42;;;8.40;99.90;;;;;;5105548;28;20385;-69
2022/02/10 14:09:10;;;;;;;17.02;2.75;;;7.90;99.90;;;;;;5053819;28;19931;-66
2022/02/10 14:17:11;;;;;;;9.52;1.88;;;7.60;99.90;;;;;;5076481;28;20045;-67
2022/02/10 14:19:58;;;;;;;10.00;2.30;;;7.50;99.90;;;;;;5049354;28;20044;-67
2022/02/10 14:22:40;;;;;;;10.93;2.05;;;7.50;99.90;;;;;;5042625;28;20045;-66
2022/02/10 14:27:51;;;;;;;13.70;2.63;;;7.50;99.90;;;;;;5042008;28;20084;-67
2022/02/10 14:30:16;;;;;;;7.22;2.13;;;7.40;99.90;;;;;;5045462;28;20045;-67
2022/02/10 14:32:45;;;;;;;9.75;2.60;;;7.40;99.90;;;;;;5043637;28;20060;-67
2022/02/10 14:35:21;;;;;;;6.65;1.70;;;7.30;99.90;;;;;;5030705;28;20055;-67
2022/02/10 14:38:10;;;;;;;7.60;1.65;;;7.30;99.90;;;;;;5055327;28;20061;-67
2022/02/10 16:16:54;;;;;;;11.88;2.50;;;6.10;99.90;;;;;;5037406;28;20053;-67
2022/02/10 16:19:20;;;;;;;13.77;2.65;;;6.20;99.90;;;;;;5038216;28;20341;-67
2022/02/10 16:21:58;;;;;;;14.88;2.50;;;6.00;99.90;;;;;;5018658;28;20046;-67
2022/02/10 16:24:44;;;;;;;12.05;2.20;;;6.00;99.90;;;;;;5036874;28;20068;-67
2022/02/10 16:27:14;;;;;;;10.48;2.20;;;6.00;99.90;;;;;;5039185;28;20049;-68
2022/02/10 16:29:39;;;;;;;10.43;2.20;;;6.00;99.90;;;;;;5037201;28;20139;-67
2022/02/10 16:32:08;;;;;;;9.38;2.60;;;5.90;99.90;;;;;;5036514;28;20084;-67
2022/02/10 16:34:34;;;;;;;12.15;2.35;;;5.90;99.90;;;;;;5034377;28;20049;-67
2022/02/10 16:37:00;;;;;;;12.65;2.97;;;5.90;99.90;;;;;;5025073;28;20611;-67
2022/02/10 16:39:26;;;;;;;17.02;2.70;;;5.80;99.90;;;;;;5030242;28;20045;-67
2022/02/10 16:41:52;;;;;;;13.55;3.50;;;5.80;99.90;;;;;;5017084;28;20088;-67
2022/02/10 16:44:19;;;;;;;11.05;2.50;;;5.70;99.90;;;;;;5022689;28;20084;-66
2022/02/10 16:46:46;;;;;;;15.10;3.10;;;5.70;99.90;;;;;;5026679;28;20082;-67
2022/02/10 16:49:16;;;;;;;15.15;3.17;;;5.70;99.90;;;;;;5007852;28;20045;-65
2022/02/10 16:51:44;;;;;;;12.70;2.50;;;5.70;99.90;;;;;;5018899;28;20069;-70
2022/02/10 16:54:20;;;;;;;10.00;2.33;;;5.70;99.90;;;;;;5018971;28;20069;-69
2022/02/10 16:57:37;;;;;;;13.50;2.78;;;5.70;99.90;;;;;;5036346;28;20132;-67
2022/02/10 17:00:45;;;;;;;12.20;2.97;;;5.60;99.90;;;;;;5012161;28;20049;-67
2022/02/10 17:02:42;;;;;;;8.30;2.70;;;5.50;99.90;;;;;;5019816;28;20058;-68
2022/02/10 17:20:50;;;;;;;12.82;2.38;;;5.30;99.90;;;;;;5018340;28;20072;-66
2022/02/10 17:28:34;;;;;;;16.98;3.38;;;5.30;99.90;;;;;;5025052;28;20055;-66
2022/02/10 17:33:50;;;;;;;13.00;2.40;;;5.30;99.90;;;;;;5025876;28;20045;-66
2022/02/10 17:36:27;;;;;;;15.38;2.92;;;5.20;99.90;;;;;;5010438;28;20049;-68
2022/02/10 17:41:53;;;;;;;8.63;2.10;;;5.20;99.90;;;;;;5042075;28;20063;-67
2022/02/10 17:44:33;;;;;;;9.40;2.67;;;5.20;99.90;;;;;;5038799;28;20049;-67
2022/02/10 17:52:21;;;;;;;11.25;2.80;;;5.10;99.90;;;;;;5030529;28;20045;-68
2022/02/10 17:54:47;;;;;;;11.55;2.58;;;5.10;99.90;;;;;;5043141;28;20048;-67
2022/02/10 17:57:14;;;;;;;11.85;2.47;;;5.00;99.90;;;;;;5046736;28;20054;-68
2022/02/10 17:59:40;;;;;;;13.32;2.50;;;5.00;99.90;;;;;;5032982;28;20360;-67
2022/02/10 18:02:06;;;;;;;10.98;2.45;;;4.90;99.90;;;;;;5037561;28;20063;-66
2022/02/10 18:04:33;;;;;;;11.00;2.45;;;4.90;99.90;;;;;;5027635;28;20079;-67
2022/02/10 18:07:00;;;;;;;16.45;3.33;;;4.90;99.90;;;;;;5016313;28;20125;-67
2022/02/10 18:09:52;;;;;;;16.90;2.95;;;4.90;99.90;;;;;;5034543;28;20064;-72
2022/02/10 18:13:10;;;;;;;11.60;2.50;;;4.90;99.90;;;;;;5039145;28;20037;-68
2022/02/10 18:15:23;;;;;;;15.00;2.53;;;4.90;99.90;;;;;;5040506;28;20139;-69
2022/02/10 18:17:56;;;;;;;14.15;2.70;;;4.70;99.90;;;;;;5045930;28;20076;-64
2022/02/10 18:20:34;;;;;;;14.65;2.63;;;4.80;99.90;;;;;;5031760;28;20504;-65
2022/02/10 18:23:10;;;;;;;17.40;3.17;;;4.80;99.90;;;;;;5031008;28;20340;-66
2022/02/10 18:25:49;;;;;;;13.75;3.25;;;4.90;99.90;;;;;;5024031;28;20064;-65
2022/02/10 19:08:08;;;;;;;11.00;3.80;;;4.70;99.90;;;;;;5030517;28;20068;-65
2022/02/10 19:10:35;;;;;;;13.60;3.28;;;4.70;99.90;;;;;;5041599;28;20041;-65
2022/02/10 19:13:02;;;;;;;10.68;3.00;;;4.60;99.90;;;;;;4999760;28;20050;-70
2022/02/10 19:15:34;;;;;;;17.00;4.82;;;4.60;99.90;;;;;;5033612;28;20083;-65
2022/02/10 19:18:05;;;;;;;16.00;3.90;;;4.60;99.90;;;;;;5033466;28;20406;-65
2022/02/10 19:20:33;;;;;;;14.98;4.53;;;4.60;99.90;;;;;;4996275;28;20103;-64
2022/02/10 19:22:59;;;;;;;12.02;3.25;;;4.60;99.90;;;;;;5010061;28;20046;-65
2022/02/10 19:25:25;;;;;;;10.95;4.18;;;4.70;99.90;;;;;;5025119;28;20045;-65
2022/02/10 19:27:51;;;;;;;11.07;3.55;;;4.80;99.90;;;;;;5032004;28;20218;-65
2022/02/10 19:30:21;;;;;;;18.35;4.28;;;4.80;99.90;;;;;;5029489;28;20045;-64
2022/02/10 19:32:52;;;;;;;13.10;3.65;;;4.80;99.90;;;;;;5023854;28;20350;-65
2022/02/10 19:35:21;;;;;;;16.55;3.40;;;4.80;99.90;;;;;;5009382;28;21855;-65
2022/02/10 19:37:53;;;;;;;20.73;4.03;;;4.80;99.90;;;;;;5007226;28;20093;-64
2022/02/10 19:40:18;;;;;;;15.80;3.15;;;4.70;99.90;;;;;;5017893;28;20056;-65
2022/02/10 19:42:47;;;;;;;15.88;4.75;;;4.70;99.90;;;;;;5004496;28;20046;-65
2022/02/10 19:45:13;;;;;;;13.25;2.70;;;4.70;99.90;;;;;;5011872;28;20103;-65
2022/02/10 19:47:40;;;;;;;13.98;3.00;;;4.70;99.90;;;;;;5021906;28;20433;-64
2022/02/10 19:50:13;;;;;;;12.10;3.65;;;4.70;99.90;;;;;;4993754;28;20115;-64
2022/02/10 19:52:47;;;;;;;15.88;2.80;;;4.80;99.90;;;;;;5016916;28;20068;-64
2022/02/10 19:55:19;;;;;;;12.48;3.03;;;4.80;99.90;;;;;;5001404;28;20073;-64
2022/02/10 19:57:46;;;;;;;9.65;2.80;;;4.70;99.90;;;;;;5012444;28;20081;-64
2022/02/10 20:00:17;;;;;;;11.48;3.55;;;4.70;99.90;;;;;;5014802;28;20072;-64
2022/02/10 20:02:43;;;;;;;18.33;3.42;;;4.70;99.90;;;;;;5016047;28;20048;-65
2022/02/10 20:05:09;;;;;;;12.45;2.75;;;4.50;99.90;;;;;;5012821;28;20049;-65
2022/02/10 20:07:38;;;;;;;10.65;2.85;;;4.60;99.90;;;;;;5020195;28;20037;-65
2022/02/10 20:10:05;;;;;;;17.33;3.20;;;4.60;99.90;;;;;;5012321;28;20060;-64
2022/02/10 20:12:31;;;;;;;9.95;2.10;;;4.60;99.90;;;;;;5018070;28;20050;-65
2022/02/10 20:14:57;;;;;;;10.10;2.83;;;4.60;99.90;;;;;;5012513;28;20045;-65
2022/02/10 20:17:23;;;;;;;10.13;2.72;;;4.50;99.90;;;;;;5032124;28;20136;-66
2022/02/10 20:19:49;;;;;;;16.15;2.65;;;4.60;99.90;;;;;;5028893;28;20052;-64
2022/02/10 20:22:15;;;;;;;11.52;2.42;;;4.50;99.90;;;;;;5057313;28;20096;-64
2022/02/10 20:24:41;;;;;;;13.18;3.35;;;4.50;99.90;;;;;;5030930;28;20179;-65
2022/02/10 20:27:09;;;;;;;10.38;2.47;;;4.60;99.90;;;;;;5029912;28;20045;-64
2022/02/10 20:29:35;;;;;;;11.88;2.85;;;4.60;99.90;;;;;;5029510;28;20038;-64
2022/02/10 20:32:01;;;;;;;11.40;2.65;;;4.60;99.90;;;;;;5032328;28;20041;-65
2022/02/10 20:34:29;;;;;;;10.80;2.72;;;4.50;99.90;;;;;;5037315;28;20054;-65
2022/02/10 20:36:56;;;;;;;11.35;2.28;;;4.60;99.90;;;;;;5032866;28;20058;-65
2022/02/10 20:39:26;;;;;;;16.85;2.78;;;4.60;99.90;;;;;;5036168;28;20052;-65
2022/02/10 20:42:00;;;;;;;13.18;2.55;;;4.50;99.90;;;;;;5033823;28;20053;-65
2022/02/10 20:44:27;;;;;;;12.27;2.35;;;4.50;99.90;;;;;;5032889;28;20109;-64
2022/02/10 20:46:53;;;;;;;12.85;2.60;;;4.50;99.90;;;;;;5038043;28;20050;-65
2022/02/10 20:49:19;;;;;;;12.77;2.67;;;4.50;99.90;;;;;;5041596;28;20133;-65
2022/02/10 20:51:45;;;;;;;12.88;2.45;;;4.50;99.90;;;;;;5041828;28;20058;-65
2022/02/10 20:54:12;;;;;;;13.50;2.67;;;4.50;99.90;;;;;;5036323;28;20041;-66
2022/02/10 20:56:37;;;;;;;16.38;3.63;;;4.50;99.90;;;;;;5040007;28;20045;-65
2022/02/10 20:59:18;;;;;;;13.05;2.95;;;4.40;99.90;;;;;;5036415;28;20048;-65
2022/02/10 21:01:44;;;;;;;13.98;2.55;;;4.40;99.90;;;;;;5044300;28;20052;-65
2022/02/10 21:04:10;;;;;;;11.40;2.65;;;4.40;99.90;;;;;;5033730;28;20430;-65
2022/02/10 21:09:09;;;;;;;8.55;1.92;;;4.30;99.90;;;;;;5042353;28;20050;-65
2022/02/10 21:11:35;;;;;;;12.98;2.55;;;4.40;99.90;;;;;;5041844;28;20045;-65
2022/02/10 21:14:00;;;;;;;11.98;2.25;;;4.40;99.90;;;;;;5024656;28;20042;-66
2022/02/10 21:16:27;;;;;;;11.02;2.10;;;4.30;99.90;;;;;;5041600;28;20053;-66
2022/02/10 21:18:53;;;;;;;12.07;3.13;;;4.30;99.90;;;;;;5038968;28;20049;-65
2022/02/10 21:21:19;;;;;;;16.10;2.67;;;4.10;99.90;;;;;;5036178;28;20472;-65
2022/02/10 21:26:18;;;;;;;13.87;2.40;;;4.20;99.90;;;;;;5038738;28;20045;-65
2022/02/10 21:28:44;;;;;;;7.20;1.92;;;4.20;99.90;;;;;;5031717;28;20383;-65
2022/02/10 21:31:10;;;;;;;12.63;2.63;;;4.30;99.90;;;;;;5051056;28;20063;-64
2022/02/10 21:36:44;;;;;;;16.20;2.80;;;4.30;99.90;;;;;;5046134;28;20065;-65
2022/02/10 21:55:02;;;;;;;10.18;2.45;;;4.30;99.90;;;;;;5039547;28;20050;-65
2022/02/10 22:00:25;;;;;;;15.95;3.40;;;4.20;99.90;;;;;;5045777;28;20158;-65
2022/02/10 22:10:46;;;;;;;12.77;2.55;;;4.20;99.90;;;;;;5046507;28;20060;-65
2022/02/10 22:21:51;;;;;;;9.18;2.90;;;3.80;99.90;;;;;;5048337;28;20049;-64
2022/02/10 22:24:18;;;;;;;15.48;4.35;;;3.80;99.90;;;;;;5042745;28;20103;-65
2022/02/10 22:26:44;;;;;;;13.57;3.30;;;3.70;99.90;;;;;;5047798;28;20045;-64
2022/02/10 22:29:25;;;;;;;14.10;4.15;;;3.80;99.90;;;;;;5060091;28;20110;-65
2022/02/10 22:34:37;;;;;;;14.48;3.05;;;3.70;99.90;;;;;;5058149;28;20080;-65
2022/02/10 22:37:07;;;;;;;9.65;2.55;;;3.70;99.90;;;;;;5059538;28;20093;-65
2022/02/10 22:39:40;;;;;;;9.68;3.03;;;3.60;99.90;;;;;;5046668;28;20049;-65
2022/02/10 22:42:07;;;;;;;10.57;2.80;;;3.60;99.90;;;;;;5038372;28;20053;-64
2022/02/10 22:44:34;;;;;;;9.20;3.05;;;3.60;99.90;;;;;;5045803;28;20137;-65
2022/02/10 22:47:04;;;;;;;16.35;2.65;;;3.70;99.90;;;;;;5063036;28;20056;-64
2022/02/10 22:49:30;;;;;;;12.88;3.83;;;3.70;99.90;;;;;;5045506;28;20052;-65
2022/02/10 22:51:57;;;;;;;9.55;2.65;;;3.70;99.90;;;;;;5059577;28;20061;-64
2022/02/10 22:54:23;;;;;;;9.18;2.67;;;3.70;99.90;;;;;;5045897;28;20045;-65
2022/02/10 22:56:49;;;;;;;15.57;3.17;;;3.80;99.90;;;;;;5038780;28;20061;-64
2022/02/10 22:59:16;;;;;;;15.25;3.45;;;3.80;99.90;;;;;;5044758;28;20077;-64
2022/02/10 23:01:42;;;;;;;10.20;2.88;;;3.80;99.90;;;;;;5043919;28;20088;-65
2022/02/10 23:04:09;;;;;;;9.63;2.90;;;3.80;99.90;;;;;;5042470;28;20128;-65
2022/02/10 23:06:36;;;;;;;9.00;3.00;;;3.80;99.90;;;;;;5043745;28;20563;-65
2022/02/10 23:11:53;;;;;;;12.88;5.40;;;3.90;99.90;;;;;;5042773;28;20139;-64
2022/02/10 23:14:19;;;;;;;10.85;3.67;;;3.80;99.90;;;;;;5044967;28;20045;-65
2022/02/10 23:16:47;;;;;;;24.48;3.85;;;3.80;99.90;;;;;;5044453;28;20075;-64
2022/02/10 23:19:14;;;;;;;8.18;3.75;;;3.80;99.90;;;;;;5044536;28;20068;-65
2022/02/10 23:21:40;;;;;;;12.50;3.45;;;3.80;99.90;;;;;;5040271;28;20053;-65
2022/02/10 23:24:06;;;;;;;12.77;3.67;;;3.80;99.90;;;;;;5042464;28;20042;-64
2022/02/10 23:26:32;;;;;;;17.35;5.22;;;3.90;99.90;;;;;;5042117;28;20049;-64
2022/02/10 23:28:59;;;;;;;14.05;3.17;;;3.90;99.90;;;;;;5040788;28;20171;-65
2022/02/10 23:31:27;;;;;;;12.13;3.47;;;4.00;99.90;;;;;;5041881;28;20045;-65
2022/02/10 23:33:57;;;;;;;11.20;3.00;;;4.10;99.90;;;;;;5047628;28;20099;-64
2022/02/10 23:36:46;;;;;;;11.27;3.40;;;4.20;99.90;;;;;;5043249;28;20045;-65
2022/02/10 23:42:13;;;;;;;13.60;3.55;;;4.20;99.90;;;;;;5075630;28;20056;-65
2022/02/10 23:44:48;;;;;;;13.50;3.58;;;4.00;99.90;;;;;;5044395;28;20049;-64
2022/02/10 23:47:20;;;;;;;13.48;3.58;;;4.10;99.90;;;;;;5042229;28;20045;-64
2022/02/10 23:49:51;;;;;;;10.32;3.58;;;4.00;99.90;;;;;;5042360;28;20045;-65
2022/02/10 23:52:17;;;;;;;;;;;4.10;99.90;;;;;;5043194;28;20049;-65
2022/02/10 23:54:45;;;;;;;8.75;3.70;;;4.10;99.90;;;;;;5075827;28;19981;-65
2022/02/10 23:57:21;;;;;;;9.85;3.17;;;4.00;99.90;;;;;;5043210;28;20083;-64
